Repentance — WDF3848 — position and weather

sailwx.info

Track history (hours):
 
Tides and Currents Weather Stations Pressure Air Temp Water Temp Dewpoint Dewpoint Depression Visibility Wind Speed Wind Dir Waves Ship Positions

Repentance

Owner: Marquette Transportation Company Gulf-Inland, LLC, Jefferson, LA. More information available from US FCC via Universal Licensing System and Coast Guard Vessel Documentation Center.

Last reported at 2017-Oct-11 00:00 UTC. Time now 2017-Oct-18 20:28 UTC.
Position N 30°04' W 093°16'.

Length 20 m.

Type: Towing. MMSI: 367444730.

Date/timePositionNaut miles runAvg speedWind from/ knotsBaromVisibWave heightAir tempDewpointWater temp
2017-Oct-11 00:00N 30°04' W 093°16'0 0.0
2017-Oct-10 23:30N 30°04' W 093°16'0 0.0
2017-Oct-10 23:01N 30°04' W 093°16'0 0.0
2017-Oct-10 22:30N 30°04' W 093°16'0 0.0
2017-Oct-10 22:00N 30°04' W 093°16'0 0.0
2017-Oct-10 21:30N 30°04' W 093°16'0 0.0
2017-Oct-10 21:00N 30°04' W 093°16'0 0.0
2017-Oct-10 20:30N 30°04' W 093°16'0 0.0
2017-Oct-10 20:00N 30°04' W 093°16'0 0.0
2017-Oct-10 19:30N 30°04' W 093°16'0 0.0
2017-Oct-10 19:00N 30°04' W 093°16'0 0.0
2017-Oct-10 18:31N 30°04' W 093°16'0 0.0
2017-Oct-10 18:00N 30°04' W 093°16'0 0.0
2017-Oct-10 17:30N 30°04' W 093°16'0 0.0
2017-Oct-10 17:01N 30°04' W 093°16'0 0.0
2017-Oct-10 16:31N 30°04' W 093°16'0 0.0
2017-Oct-10 16:00N 30°04' W 093°16'0 0.0
2017-Oct-10 15:30N 30°04' W 093°16'0 0.0
2017-Oct-10 15:01N 30°04' W 093°16'0 0.0
2017-Oct-10 14:01N 30°04' W 093°16'0 0.0
2017-Oct-10 13:30N 30°04' W 093°16'0 0.0
2017-Oct-10 13:01N 30°04' W 093°16'0 0.1
2017-Oct-10 12:30N 30°04' W 093°16'0 0.1
2017-Oct-10 12:00N 30°04' W 093°16'0 0.3
2017-Oct-10 11:30N 30°04' W 093°16'0 0.1
2017-Oct-10 11:00N 30°04' W 093°16'0 0.0
2017-Oct-10 10:31N 30°04' W 093°16'0 0.0
2017-Oct-10 10:00N 30°04' W 093°16'0 0.0
2017-Oct-10 09:31N 30°04' W 093°16'0 0.1
2017-Oct-10 09:00N 30°04' W 093°16'0 0.1
2017-Oct-10 08:30N 30°04' W 093°16'0 0.0
2017-Oct-10 08:01N 30°04' W 093°16'0 0.1
2017-Oct-10 07:30N 30°04' W 093°16'1 2.9
2017-Oct-10 07:01N 30°03' W 093°16'1 1.9
2017-Oct-10 06:30N 30°02' W 093°15'2 3.2
2017-Oct-10 06:00N 30°01' W 093°14'2 4.8
2017-Oct-10 05:30N 29°59' W 093°12'2 4.4
2017-Oct-10 05:01N 29°57' W 093°11'1 2.3
2017-Oct-10 04:30N 29°56' W 093°10'1 2.4
2017-Oct-10 04:00N 29°56' W 093°08'2 3.1
2017-Oct-10 03:30N 29°56' W 093°07'2 4.3
2017-Oct-10 03:01N 29°56' W 093°04'37 5.0
2017-Oct-09 19:29N 29°51' W 092°21'2 5.1
2017-Oct-09 19:00N 29°50' W 092°19'2 4.9
2017-Oct-09 18:30N 29°49' W 092°16'3 5.0
2017-Oct-09 18:01N 29°48' W 092°14'2 3.0
2017-Oct-09 17:30N 29°47' W 092°12'1 2.1
2017-Oct-09 17:00N 29°47' W 092°11'0 0.0
2017-Oct-09 16:30N 29°47' W 092°11'0 0.0
2017-Oct-09 16:01N 29°47' W 092°11'0 0.0
2017-Oct-09 15:30N 29°47' W 092°11'0 0.0
2017-Oct-09 15:00N 29°47' W 092°11'0 0.1
2017-Oct-09 14:30N 29°47' W 092°11'2 3.8
2017-Oct-09 14:01N 29°47' W 092°09'3 5.6
2017-Oct-09 13:31N 29°48' W 092°06'2 4.9
2017-Oct-09 13:01N 29°49' W 092°03'1 2.6
2017-Oct-09 12:30N 29°49' W 092°02'  
2017-Oct-05 11:36N 29°50' W 091°60'0 3.8
2017-Oct-05 11:30N 29°50' W 092°00'2 3.9
2017-Oct-05 11:00N 29°49' W 092°02'2 3.7
2017-Oct-05 10:30N 29°48' W 092°04'2 4.0
2017-Oct-05 10:00N 29°48' W 092°06'2 4.1
2017-Oct-05 09:30N 29°47' W 092°09'2 3.6
2017-Oct-05 09:00N 29°47' W 092°11'2 3.4
2017-Oct-05 08:30N 29°47' W 092°12'0 0.9
2017-Oct-05 08:00N 29°47' W 092°13'1 2.5
2017-Oct-05 07:30N 29°48' W 092°14'0 0.0
2017-Oct-05 07:00N 29°48' W 092°14'0 0.0
2017-Oct-05 06:30N 29°48' W 092°14'0 0.5
2017-Oct-05 06:00N 29°48' W 092°14'0 1.0
2017-Oct-05 05:30N 29°48' W 092°15'1 1.5
2017-Oct-05 05:00N 29°48' W 092°16'0 0.4
2017-Oct-05 04:30N 29°49' W 092°16'1 2.2
2017-Oct-05 04:00N 29°49' W 092°17'1 2.1
2017-Oct-05 03:30N 29°50' W 092°18'2 3.5
2017-Oct-05 03:00N 29°50' W 092°20'39 3.4
2017-Oct-04 15:33N 29°56' W 093°05'0 3.8
2017-Oct-04 15:29N 29°56' W 093°05'2 3.8
2017-Oct-04 14:58N 29°56' W 093°07'2 3.9
2017-Oct-04 14:30N 29°56' W 093°09'2 4.0
2017-Oct-04 14:00N 29°58' W 093°11'2 4.0
2017-Oct-04 13:30N 29°59' W 093°12'2 3.8
2017-Oct-04 12:59N 30°01' W 093°14'2 3.4
2017-Oct-04 12:29N 30°02' W 093°15'2 3.3
2017-Oct-04 12:00N 30°03' W 093°16'2 4.0
2017-Oct-04 11:30N 30°05' W 093°17'1 1.1
2017-Oct-04 11:00N 30°05' W 093°18'1 2.2
2017-Oct-04 10:30N 30°06' W 093°19'2 3.8
2017-Oct-04 10:00N 30°05' W 093°20'2 3.1
2017-Oct-04 09:30N 30°04' W 093°21'2 3.5
2017-Oct-04 09:00N 30°04' W 093°23'1 2.3
2017-Oct-04 08:30N 30°04' W 093°25'2 3.5
2017-Oct-04 07:59N 30°04' W 093°27'2 3.9
2017-Oct-04 07:30N 30°04' W 093°29'2 4.0
2017-Oct-04 06:59N 30°04' W 093°31'2 4.0
2017-Oct-04 06:29N 30°04' W 093°34'2 3.9
2017-Oct-04 06:00N 30°04' W 093°36'2 3.9
2017-Oct-04 05:29N 30°04' W 093°38'2 3.9
2017-Oct-04 05:00N 30°03' W 093°40'2 3.8
2017-Oct-04 04:29N 30°03' W 093°43'1 0.0
2017-Oct-02 14:06N 30°04' W 093°42'0 4.1
2017-Oct-02 14:00N 30°04' W 093°41'2 3.4
2017-Oct-02 13:28N 30°04' W 093°39'2 3.6
2017-Oct-02 13:00N 30°04' W 093°37'2 4.0
2017-Oct-02 12:30N 30°04' W 093°35'2 4.1
2017-Oct-02 12:00N 30°04' W 093°33'2 4.2
2017-Oct-02 11:30N 30°04' W 093°30'2 4.3
2017-Oct-02 11:00N 30°04' W 093°28'2 4.2
2017-Oct-02 10:30N 30°04' W 093°25'2 3.7
2017-Oct-02 10:00N 30°04' W 093°23'1 2.7
2017-Oct-02 09:30N 30°04' W 093°22'1 2.8
2017-Oct-02 09:00N 30°04' W 093°20'2 4.4
2017-Oct-02 08:30N 30°06' W 093°19'1 2.6
2017-Oct-02 08:00N 30°05' W 093°18'1 2.5
2017-Oct-02 07:30N 30°04' W 093°16'0 0.6
2017-Oct-02 07:00N 30°04' W 093°16'0 0.0
2017-Oct-02 06:30N 30°04' W 093°16'0 0.1
2017-Oct-02 06:00N 30°04' W 093°16'0 0.1
2017-Oct-02 05:31N 30°04' W 093°16'0 0.0
2017-Oct-02 05:00N 30°04' W 093°16'0 0.0
2017-Oct-02 04:30N 30°04' W 093°16'0 0.0
2017-Oct-02 04:00N 30°04' W 093°16'0 0.9
2017-Oct-02 03:30N 30°04' W 093°16'2 3.1
2017-Oct-02 03:01N 30°02' W 093°15'1 2.8
2017-Oct-02 02:30N 30°01' W 093°14'2 3.3
2017-Oct-02 02:00N 29°60' W 093°13'1 2.2
2017-Oct-02 01:30N 29°59' W 093°12'2 3.5
2017-Oct-02 01:00N 29°58' W 093°11'2 3.6
2017-Oct-02 00:30N 29°56' W 093°10'2 3.3
2017-Oct-02 00:00N 29°56' W 093°08'2 3.6
2017-Oct-01 23:31N 29°56' W 093°06'2 3.7
2017-Oct-01 23:00N 29°56' W 093°04'35 3.5
2017-Oct-01 13:00N 29°53' W 092°24'3 3.0
2017-Oct-01 11:56N 29°51' W 092°21'2 3.8
2017-Oct-01 11:30N 29°50' W 092°20'2 3.6
2017-Oct-01 11:00N 29°50' W 092°18'2 3.3
2017-Oct-01 10:30N 29°49' W 092°16'2 3.8
2017-Oct-01 10:00N 29°48' W 092°14'2 3.7
2017-Oct-01 09:30N 29°47' W 092°12'2 3.9
2017-Oct-01 09:00N 29°47' W 092°10'2 3.9
2017-Oct-01 08:30N 29°47' W 092°08'2 3.5
2017-Oct-01 08:00N 29°48' W 092°06'2 3.4
2017-Oct-01 07:30N 29°48' W 092°04'2 3.6
2017-Oct-01 07:00N 29°49' W 092°02'2 3.2
2017-Oct-01 06:30N 29°50' W 092°01'2 3.7
2017-Oct-01 06:00N 29°50' W 091°59'2 3.3
2017-Oct-01 05:30N 29°51' W 091°57'2 3.3
2017-Oct-01 04:53N 29°51' W 091°54'  
Track history (hours):
 
Tides and Currents Weather Stations Pressure Air Temp Water Temp Dewpoint Dewpoint Depression Visibility Wind Speed Wind Dir Waves Ship Positions

Repentance

Owner: Marquette Transportation Company Gulf-Inland, LLC, Jefferson, LA. More information available from US FCC via Universal Licensing System and Coast Guard Vessel Documentation Center.

Last reported at 2017-Oct-11 00:00 UTC. Time now 2017-Oct-18 20:28 UTC.
Position N 30°04' W 093°16'.

Length 20 m.

Type: Towing. MMSI: 367444730.

Date/timePositionNaut miles runAvg speedWind from/ knotsBaromVisibWave heightAir tempDewpointWater temp
2017-Oct-11 00:00N 30°04' W 093°16'0 0.0
2017-Oct-10 23:30N 30°04' W 093°16'0 0.0
2017-Oct-10 23:01N 30°04' W 093°16'0 0.0
2017-Oct-10 22:30N 30°04' W 093°16'0 0.0
2017-Oct-10 22:00N 30°04' W 093°16'0 0.0
2017-Oct-10 21:30N 30°04' W 093°16'0 0.0
2017-Oct-10 21:00N 30°04' W 093°16'0 0.0
2017-Oct-10 20:30N 30°04' W 093°16'0 0.0
2017-Oct-10 20:00N 30°04' W 093°16'0 0.0
2017-Oct-10 19:30N 30°04' W 093°16'0 0.0
2017-Oct-10 19:00N 30°04' W 093°16'0 0.0
2017-Oct-10 18:31N 30°04' W 093°16'0 0.0
2017-Oct-10 18:00N 30°04' W 093°16'0 0.0
2017-Oct-10 17:30N 30°04' W 093°16'0 0.0
2017-Oct-10 17:01N 30°04' W 093°16'0 0.0
2017-Oct-10 16:31N 30°04' W 093°16'0 0.0
2017-Oct-10 16:00N 30°04' W 093°16'0 0.0
2017-Oct-10 15:30N 30°04' W 093°16'0 0.0
2017-Oct-10 15:01N 30°04' W 093°16'0 0.0
2017-Oct-10 14:01N 30°04' W 093°16'0 0.0
2017-Oct-10 13:30N 30°04' W 093°16'0 0.0
2017-Oct-10 13:01N 30°04' W 093°16'0 0.1
2017-Oct-10 12:30N 30°04' W 093°16'0 0.1
2017-Oct-10 12:00N 30°04' W 093°16'0 0.3
2017-Oct-10 11:30N 30°04' W 093°16'0 0.1
2017-Oct-10 11:00N 30°04' W 093°16'0 0.0
2017-Oct-10 10:31N 30°04' W 093°16'0 0.0
2017-Oct-10 10:00N 30°04' W 093°16'0 0.0
2017-Oct-10 09:31N 30°04' W 093°16'0 0.1
2017-Oct-10 09:00N 30°04' W 093°16'0 0.1
2017-Oct-10 08:30N 30°04' W 093°16'0 0.0
2017-Oct-10 08:01N 30°04' W 093°16'0 0.1
2017-Oct-10 07:30N 30°04' W 093°16'1 2.9
2017-Oct-10 07:01N 30°03' W 093°16'1 1.9
2017-Oct-10 06:30N 30°02' W 093°15'2 3.2
2017-Oct-10 06:00N 30°01' W 093°14'2 4.8
2017-Oct-10 05:30N 29°59' W 093°12'2 4.4
2017-Oct-10 05:01N 29°57' W 093°11'1 2.3
2017-Oct-10 04:30N 29°56' W 093°10'1 2.4
2017-Oct-10 04:00N 29°56' W 093°08'2 3.1
2017-Oct-10 03:30N 29°56' W 093°07'2 4.3
2017-Oct-10 03:01N 29°56' W 093°04'37 5.0
2017-Oct-09 19:29N 29°51' W 092°21'2 5.1
2017-Oct-09 19:00N 29°50' W 092°19'2 4.9
2017-Oct-09 18:30N 29°49' W 092°16'3 5.0
2017-Oct-09 18:01N 29°48' W 092°14'2 3.0
2017-Oct-09 17:30N 29°47' W 092°12'1 2.1
2017-Oct-09 17:00N 29°47' W 092°11'0 0.0
2017-Oct-09 16:30N 29°47' W 092°11'0 0.0
2017-Oct-09 16:01N 29°47' W 092°11'0 0.0
2017-Oct-09 15:30N 29°47' W 092°11'0 0.0
2017-Oct-09 15:00N 29°47' W 092°11'0 0.1
2017-Oct-09 14:30N 29°47' W 092°11'2 3.8
2017-Oct-09 14:01N 29°47' W 092°09'3 5.6
2017-Oct-09 13:31N 29°48' W 092°06'2 4.9
2017-Oct-09 13:01N 29°49' W 092°03'1 2.6
2017-Oct-09 12:30N 29°49' W 092°02'  
2017-Oct-05 11:36N 29°50' W 091°60'0 3.8
2017-Oct-05 11:30N 29°50' W 092°00'2 3.9
2017-Oct-05 11:00N 29°49' W 092°02'2 3.7
2017-Oct-05 10:30N 29°48' W 092°04'2 4.0
2017-Oct-05 10:00N 29°48' W 092°06'2 4.1
2017-Oct-05 09:30N 29°47' W 092°09'2 3.6
2017-Oct-05 09:00N 29°47' W 092°11'2 3.4
2017-Oct-05 08:30N 29°47' W 092°12'0 0.9
2017-Oct-05 08:00N 29°47' W 092°13'1 2.5
2017-Oct-05 07:30N 29°48' W 092°14'0 0.0
2017-Oct-05 07:00N 29°48' W 092°14'0 0.0
2017-Oct-05 06:30N 29°48' W 092°14'0 0.5
2017-Oct-05 06:00N 29°48' W 092°14'0 1.0
2017-Oct-05 05:30N 29°48' W 092°15'1 1.5
2017-Oct-05 05:00N 29°48' W 092°16'0 0.4
2017-Oct-05 04:30N 29°49' W 092°16'1 2.2
2017-Oct-05 04:00N 29°49' W 092°17'1 2.1
2017-Oct-05 03:30N 29°50' W 092°18'2 3.5
2017-Oct-05 03:00N 29°50' W 092°20'39 3.4
2017-Oct-04 15:33N 29°56' W 093°05'0 3.8
2017-Oct-04 15:29N 29°56' W 093°05'2 3.8
2017-Oct-04 14:58N 29°56' W 093°07'2 3.9
2017-Oct-04 14:30N 29°56' W 093°09'2 4.0
2017-Oct-04 14:00N 29°58' W 093°11'2 4.0
2017-Oct-04 13:30N 29°59' W 093°12'2 3.8
2017-Oct-04 12:59N 30°01' W 093°14'2 3.4
2017-Oct-04 12:29N 30°02' W 093°15'2 3.3
2017-Oct-04 12:00N 30°03' W 093°16'2 4.0
2017-Oct-04 11:30N 30°05' W 093°17'1 1.1
2017-Oct-04 11:00N 30°05' W 093°18'1 2.2
2017-Oct-04 10:30N 30°06' W 093°19'2 3.8
2017-Oct-04 10:00N 30°05' W 093°20'2 3.1
2017-Oct-04 09:30N 30°04' W 093°21'2 3.5
2017-Oct-04 09:00N 30°04' W 093°23'1 2.3
2017-Oct-04 08:30N 30°04' W 093°25'2 3.5
2017-Oct-04 07:59N 30°04' W 093°27'2 3.9
2017-Oct-04 07:30N 30°04' W 093°29'2 4.0
2017-Oct-04 06:59N 30°04' W 093°31'2 4.0
2017-Oct-04 06:29N 30°04' W 093°34'2 3.9
2017-Oct-04 06:00N 30°04' W 093°36'2 3.9
2017-Oct-04 05:29N 30°04' W 093°38'2 3.9
2017-Oct-04 05:00N 30°03' W 093°40'2 3.8
2017-Oct-04 04:29N 30°03' W 093°43'1 0.0
2017-Oct-02 14:06N 30°04' W 093°42'0 4.1
2017-Oct-02 14:00N 30°04' W 093°41'2 3.4
2017-Oct-02 13:28N 30°04' W 093°39'2 3.6
2017-Oct-02 13:00N 30°04' W 093°37'2 4.0
2017-Oct-02 12:30N 30°04' W 093°35'2 4.1
2017-Oct-02 12:00N 30°04' W 093°33'2 4.2
2017-Oct-02 11:30N 30°04' W 093°30'2 4.3
2017-Oct-02 11:00N 30°04' W 093°28'2 4.2
2017-Oct-02 10:30N 30°04' W 093°25'2 3.7
2017-Oct-02 10:00N 30°04' W 093°23'1 2.7
2017-Oct-02 09:30N 30°04' W 093°22'1 2.8
2017-Oct-02 09:00N 30°04' W 093°20'2 4.4
2017-Oct-02 08:30N 30°06' W 093°19'1 2.6
2017-Oct-02 08:00N 30°05' W 093°18'1 2.5
2017-Oct-02 07:30N 30°04' W 093°16'0 0.6
2017-Oct-02 07:00N 30°04' W 093°16'0 0.0
2017-Oct-02 06:30N 30°04' W 093°16'0 0.1
2017-Oct-02 06:00N 30°04' W 093°16'0 0.1
2017-Oct-02 05:31N 30°04' W 093°16'0 0.0
2017-Oct-02 05:00N 30°04' W 093°16'0 0.0
2017-Oct-02 04:30N 30°04' W 093°16'0 0.0
2017-Oct-02 04:00N 30°04' W 093°16'0 0.9
2017-Oct-02 03:30N 30°04' W 093°16'2 3.1
2017-Oct-02 03:01N 30°02' W 093°15'1 2.8
2017-Oct-02 02:30N 30°01' W 093°14'2 3.3
2017-Oct-02 02:00N 29°60' W 093°13'1 2.2
2017-Oct-02 01:30N 29°59' W 093°12'2 3.5
2017-Oct-02 01:00N 29°58' W 093°11'2 3.6
2017-Oct-02 00:30N 29°56' W 093°10'2 3.3
2017-Oct-02 00:00N 29°56' W 093°08'2 3.6
2017-Oct-01 23:31N 29°56' W 093°06'2 3.7
2017-Oct-01 23:00N 29°56' W 093°04'35 3.5
2017-Oct-01 13:00N 29°53' W 092°24'3 3.0
2017-Oct-01 11:56N 29°51' W 092°21'2 3.8
2017-Oct-01 11:30N 29°50' W 092°20'2 3.6
2017-Oct-01 11:00N 29°50' W 092°18'2 3.3
2017-Oct-01 10:30N 29°49' W 092°16'2 3.8
2017-Oct-01 10:00N 29°48' W 092°14'2 3.7
2017-Oct-01 09:30N 29°47' W 092°12'2 3.9
2017-Oct-01 09:00N 29°47' W 092°10'2 3.9
2017-Oct-01 08:30N 29°47' W 092°08'2 3.5
2017-Oct-01 08:00N 29°48' W 092°06'2 3.4
2017-Oct-01 07:30N 29°48' W 092°04'2 3.6
2017-Oct-01 07:00N 29°49' W 092°02'2 3.2
2017-Oct-01 06:30N 29°50' W 092°01'2 3.7
2017-Oct-01 06:00N 29°50' W 091°59'2 3.3
2017-Oct-01 05:30N 29°51' W 091°57'2 3.3
2017-Oct-01 04:53N 29°51' W 091°54'  

Dump ship's entire track history